createdAt,value
2022-11-27T00:02:09.155Z,6.80
2022-11-27T00:04:35.973Z,6.80
2022-11-27T00:07:03.008Z,6.80
2022-11-27T00:09:30.158Z,6.80
2022-11-27T00:11:56.919Z,6.80
2022-11-27T00:14:23.697Z,6.70
2022-11-27T00:16:50.550Z,6.70
2022-11-27T00:19:17.320Z,6.70
2022-11-27T00:21:44.203Z,6.70
2022-11-27T00:24:12.005Z,6.70
2022-11-27T00:26:38.875Z,6.70
2022-11-27T00:29:07.455Z,6.70
2022-11-27T00:31:39.225Z,6.70
2022-11-27T00:34:08.530Z,6.80
2022-11-27T00:36:36.780Z,6.70
2022-11-27T00:39:04.203Z,6.70
2022-11-27T00:41:31.727Z,6.70
2022-11-27T00:43:58.852Z,6.70
2022-11-27T00:46:29.461Z,6.80
2022-11-27T00:49:00.268Z,6.70
2022-11-27T00:51:27.930Z,6.80
2022-11-27T00:53:55.720Z,6.80
2022-11-27T00:56:28.627Z,6.70
2022-11-27T00:58:55.869Z,6.70
2022-11-27T01:01:27.614Z,6.70
2022-11-27T01:03:56.228Z,6.70
2022-11-27T01:06:24.343Z,6.70
2022-11-27T01:08:51.268Z,6.70
2022-11-27T01:11:25.677Z,6.70
2022-11-27T01:13:53.868Z,6.70
2022-11-27T01:16:24.035Z,6.60
2022-11-27T01:18:51.864Z,6.70
2022-11-27T01:21:20.431Z,6.60
2022-11-27T01:23:48.951Z,6.60
2022-11-27T01:26:16.435Z,6.60
2022-11-27T01:28:43.927Z,6.60
2022-11-27T01:31:20.694Z,6.60
2022-11-27T01:33:51.710Z,6.60
2022-11-27T01:36:18.813Z,6.60
2022-11-27T01:38:45.764Z,6.60
2022-11-27T01:41:17.520Z,6.60
2022-11-27T01:43:49.962Z,6.60
2022-11-27T01:46:23.044Z,6.60
2022-11-27T01:48:53.289Z,6.60
2022-11-27T01:51:22.128Z,6.40
2022-11-27T01:53:50.170Z,6.50
2022-11-27T01:56:18.160Z,6.40
2022-11-27T01:58:45.016Z,6.40
2022-11-27T02:01:12.086Z,6.40
2022-11-27T02:03:38.827Z,6.30
2022-11-27T02:06:05.778Z,6.30
2022-11-27T02:08:32.809Z,6.30
2022-11-27T02:11:31.038Z,6.30
2022-11-27T02:14:28.256Z,6.30
2022-11-27T02:17:30.399Z,6.30
2022-11-27T02:20:26.701Z,6.30
2022-11-27T02:23:03.839Z,6.30
2022-11-27T02:25:52.459Z,6.30
2022-11-27T02:28:43.125Z,6.20
2022-11-27T02:31:17.912Z,6.20
2022-11-27T02:33:48.807Z,6.20
2022-11-27T02:36:24.241Z,6.20
2022-11-27T02:38:59.515Z,6.20
2022-11-27T02:41:32.263Z,6.20
2022-11-27T02:44:01.242Z,6.20
2022-11-27T02:46:28.924Z,6.10
2022-11-27T02:48:58.788Z,6.10
2022-11-27T02:51:31.070Z,6.10
2022-11-27T02:54:01.584Z,6.10
2022-11-27T02:56:30.929Z,6.00
2022-11-27T02:59:01.609Z,6.00
2022-11-27T03:01:34.949Z,5.90
2022-11-27T03:04:06.404Z,5.90
2022-11-27T03:06:44.976Z,5.90
2022-11-27T03:09:27.783Z,5.90
2022-11-27T03:11:56.257Z,5.90
2022-11-27T03:14:24.832Z,5.90
2022-11-27T03:17:02.631Z,5.80
2022-11-27T03:19:41.310Z,5.80
2022-11-27T03:22:08.193Z,5.80
2022-11-27T03:24:36.013Z,5.80
2022-11-27T03:27:04.141Z,5.80
2022-11-27T03:29:36.822Z,5.80
2022-11-27T03:32:04.428Z,5.90
2022-11-27T03:34:32.437Z,5.90
2022-11-27T03:36:59.331Z,5.90
2022-11-27T03:39:26.520Z,5.90
2022-11-27T03:42:05.486Z,5.90
2022-11-27T03:44:53.323Z,5.90
2022-11-27T03:47:28.921Z,5.90
2022-11-27T03:50:32.655Z,5.90
2022-11-27T03:53:18.241Z,5.90
2022-11-27T03:56:13.152Z,5.90
2022-11-27T03:59:21.241Z,5.90
2022-11-27T04:01:48.314Z,5.90
2022-11-27T04:04:15.584Z,6.00
2022-11-27T04:06:42.563Z,6.00
2022-11-27T04:09:09.347Z,6.00
2022-11-27T04:11:36.517Z,6.00
2022-11-27T04:14:03.327Z,6.00
2022-11-27T04:16:30.155Z,6.10
2022-11-27T04:18:56.937Z,6.00
2022-11-27T04:21:23.648Z,6.00
2022-11-27T04:23:50.605Z,6.10
2022-11-27T04:26:17.438Z,6.10
2022-11-27T04:28:44.215Z,6.10
2022-11-27T04:31:10.975Z,6.10
2022-11-27T04:33:37.944Z,6.10
2022-11-27T04:36:04.929Z,6.10
2022-11-27T04:38:31.711Z,6.10
2022-11-27T04:40:58.477Z,6.10
2022-11-27T04:43:25.259Z,6.10
2022-11-27T04:45:52.471Z,6.10
2022-11-27T04:48:19.220Z,6.20
2022-11-27T04:50:45.987Z,6.20
2022-11-27T04:53:12.812Z,6.20
2022-11-27T04:55:39.634Z,6.30
2022-11-27T04:58:07.333Z,6.20
2022-11-27T05:00:34.544Z,6.30
2022-11-27T05:03:02.766Z,6.30
2022-11-27T05:05:29.672Z,6.30
2022-11-27T05:07:56.907Z,6.30
2022-11-27T05:10:23.710Z,6.30
2022-11-27T05:12:50.942Z,6.30
2022-11-27T05:15:17.770Z,6.30
2022-11-27T05:17:44.571Z,6.40
2022-11-27T05:20:11.497Z,6.40
2022-11-27T05:22:38.283Z,6.40
2022-11-27T05:25:05.344Z,6.40
2022-11-27T05:27:32.067Z,6.40
2022-11-27T05:29:58.841Z,6.40
2022-11-27T05:32:25.556Z,6.40
2022-11-27T05:34:52.406Z,6.40
2022-11-27T05:37:20.017Z,6.40
2022-11-27T05:39:47.107Z,6.40
2022-11-27T05:42:14.205Z,6.40
2022-11-27T05:44:41.152Z,6.50
2022-11-27T05:47:08.113Z,6.50
2022-11-27T05:49:35.205Z,6.40
2022-11-27T05:52:01.979Z,6.40
2022-11-27T05:54:28.797Z,6.40
2022-11-27T05:56:55.535Z,6.40
2022-11-27T05:59:22.409Z,6.40
2022-11-27T06:01:49.505Z,6.40
2022-11-27T06:04:16.639Z,6.40
2022-11-27T06:06:43.484Z,6.40
2022-11-27T06:09:13.142Z,6.40
2022-11-27T06:11:41.336Z,6.40
2022-11-27T06:14:11.447Z,6.50
2022-11-27T06:16:38.456Z,6.40
2022-11-27T06:19:05.439Z,6.40
2022-11-27T06:21:32.367Z,6.50
2022-11-27T06:23:59.586Z,6.50
2022-11-27T06:26:29.236Z,6.50
2022-11-27T06:28:58.438Z,6.50
2022-11-27T06:31:28.010Z,6.50
2022-11-27T06:33:56.271Z,6.50
2022-11-27T06:36:27.328Z,6.50
2022-11-27T06:38:54.123Z,6.50
2022-11-27T06:41:24.543Z,6.50
2022-11-27T06:43:51.447Z,6.60
2022-11-27T06:46:19.790Z,6.50
2022-11-27T06:48:49.044Z,6.50
2022-11-27T06:51:18.899Z,6.50
2022-11-27T06:53:45.819Z,6.50
2022-11-27T06:56:15.847Z,6.50
2022-11-27T06:58:43.351Z,6.50
2022-11-27T07:01:13.459Z,6.60
2022-11-27T07:03:40.788Z,6.60
2022-11-27T07:06:11.694Z,6.60
2022-11-27T07:08:39.263Z,6.50
2022-11-27T07:11:07.390Z,6.60
2022-11-27T07:13:34.542Z,6.60
2022-11-27T07:16:02.609Z,6.60
2022-11-27T07:18:30.750Z,6.60
2022-11-27T07:20:57.459Z,6.60
2022-11-27T07:23:24.190Z,6.70
2022-11-27T07:25:50.945Z,6.70
2022-11-27T07:28:19.294Z,6.70
2022-11-27T07:30:53.499Z,6.70
2022-11-27T07:33:20.360Z,6.70
2022-11-27T07:35:47.075Z,6.70
2022-11-27T07:38:13.894Z,6.80
2022-11-27T07:40:40.629Z,6.80
2022-11-27T07:43:07.393Z,6.80
2022-11-27T07:45:34.177Z,6.80
2022-11-27T07:48:00.883Z,6.80
2022-11-27T07:50:27.528Z,6.80
2022-11-27T07:52:54.178Z,6.90
2022-11-27T07:55:20.852Z,6.90
2022-11-27T07:57:47.492Z,6.90
2022-11-27T08:00:14.645Z,6.90
2022-11-27T08:02:41.342Z,7.00
2022-11-27T08:05:12.661Z,7.00
2022-11-27T08:07:40.081Z,7.00
2022-11-27T08:10:07.663Z,7.10
2022-11-27T08:12:34.399Z,7.10
2022-11-27T08:15:01.451Z,7.20
2022-11-27T08:17:28.132Z,7.20
2022-11-27T08:19:55.010Z,7.30
2022-11-27T08:22:21.956Z,7.30
2022-11-27T08:24:48.629Z,7.40
2022-11-27T08:27:16.287Z,7.40
2022-11-27T08:29:43.262Z,7.50
2022-11-27T08:32:10.691Z,7.60
2022-11-27T08:34:37.430Z,7.60
2022-11-27T08:37:05.629Z,7.60
2022-11-27T08:39:32.368Z,7.70
2022-11-27T08:41:59.612Z,7.70
2022-11-27T08:44:26.300Z,7.70
2022-11-27T08:46:53.038Z,7.80
2022-11-27T08:49:19.808Z,7.80
2022-11-27T08:51:46.574Z,7.80
2022-11-27T08:54:13.426Z,7.90
2022-11-27T08:56:40.074Z,7.90
2022-11-27T08:59:06.725Z,7.90
2022-11-27T09:01:33.499Z,8.00
2022-11-27T09:04:00.397Z,8.00
2022-11-27T09:06:34.756Z,8.00
2022-11-27T09:09:04.673Z,8.00
2022-11-27T09:11:33.080Z,8.10
2022-11-27T09:14:01.672Z,8.10
2022-11-27T09:16:30.034Z,8.10
2022-11-27T09:18:57.628Z,8.20
2022-11-27T09:21:30.319Z,8.20
2022-11-27T09:23:58.804Z,8.20
2022-11-27T09:26:26.786Z,8.30
2022-11-27T09:28:54.504Z,8.30
2022-11-27T09:31:22.789Z,8.40
2022-11-27T09:33:49.746Z,8.40
2022-11-27T09:36:21.674Z,8.50
2022-11-27T09:38:48.720Z,8.50
2022-11-27T09:41:24.862Z,8.60
2022-11-27T09:43:56.740Z,8.60
2022-11-27T09:46:31.151Z,8.70
2022-11-27T09:49:00.573Z,8.70
2022-11-27T09:51:35.126Z,8.80
2022-11-27T09:54:08.571Z,8.80
2022-11-27T09:56:36.641Z,8.80
2022-11-27T09:59:11.167Z,8.80
2022-11-27T10:01:46.208Z,8.80
2022-11-27T10:04:18.673Z,8.90
2022-11-27T10:06:57.425Z,8.90
2022-11-27T10:09:35.972Z,8.90
2022-11-27T10:12:08.969Z,9.00
2022-11-27T10:15:01.371Z,9.00
2022-11-27T10:17:52.030Z,9.00
2022-11-27T10:20:32.176Z,9.10
2022-11-27T10:23:24.467Z,9.10
2022-11-27T10:25:54.392Z,9.10
2022-11-27T10:28:57.212Z,9.10
2022-11-27T10:31:29.863Z,9.10
2022-11-27T10:34:01.340Z,9.10
2022-11-27T10:36:47.692Z,9.10
2022-11-27T10:39:30.671Z,9.10
2022-11-27T10:42:07.341Z,9.10
2022-11-27T10:44:41.026Z,9.00
2022-11-27T10:47:11.265Z,9.00
2022-11-27T10:49:40.575Z,9.00
2022-11-27T10:52:16.778Z,8.90
2022-11-27T10:54:46.965Z,8.90
2022-11-27T10:57:37.769Z,8.90
2022-11-27T11:00:15.494Z,8.90
2022-11-27T11:02:42.375Z,8.90
2022-11-27T11:08:14.393Z,8.90
2022-11-27T11:10:49.789Z,8.90
2022-11-27T11:13:19.800Z,8.90
2022-11-27T11:16:09.792Z,8.90
2022-11-27T11:18:48.949Z,8.90
2022-11-27T11:21:26.077Z,8.90
2022-11-27T11:24:14.662Z,9.00
2022-11-27T11:26:47.500Z,9.00
2022-11-27T11:29:26.670Z,9.00
2022-11-27T11:31:55.241Z,9.00
2022-11-27T11:34:30.777Z,9.00
2022-11-27T11:37:04.353Z,9.10
2022-11-27T11:39:39.111Z,9.10
2022-11-27T11:42:11.087Z,9.10
2022-11-27T11:44:40.156Z,9.10
2022-11-27T11:47:17.637Z,9.10
2022-11-27T11:49:44.376Z,9.20
2022-11-27T11:52:29.553Z,9.20
2022-11-27T11:55:22.666Z,9.20
2022-11-27T11:57:58.241Z,9.20
2022-11-27T12:00:31.561Z,9.20
2022-11-27T12:03:11.756Z,9.30
2022-11-27T12:05:54.264Z,9.30
2022-11-27T12:08:48.099Z,9.30
2022-11-27T12:11:29.294Z,9.30
2022-11-27T12:14:36.785Z,9.40
2022-11-27T12:17:17.077Z,9.40
2022-11-27T12:20:13.464Z,9.40
2022-11-27T12:23:18.566Z,9.40
2022-11-27T12:26:01.959Z,9.50
2022-11-27T12:28:58.992Z,9.50
2022-11-27T12:31:49.907Z,9.50
2022-11-27T12:34:34.419Z,9.60
2022-11-27T12:37:28.099Z,9.60
2022-11-27T12:40:29.683Z,9.60
2022-11-27T12:43:02.134Z,9.60
2022-11-27T12:45:41.336Z,9.70
2022-11-27T12:48:24.098Z,9.60
2022-11-27T12:50:56.498Z,9.70
2022-11-27T12:53:45.286Z,9.70
2022-11-27T12:56:26.537Z,9.70
2022-11-27T12:59:02.635Z,9.70
2022-11-27T13:01:36.338Z,9.70
2022-11-27T13:04:27.482Z,9.70
2022-11-27T13:07:10.773Z,9.70
2022-11-27T13:10:02.958Z,9.80
2022-11-27T13:12:37.543Z,9.80
2022-11-27T13:15:15.379Z,9.80
2022-11-27T13:17:43.871Z,9.90
2022-11-27T13:20:21.691Z,9.90
2022-11-27T13:22:49.708Z,9.90
2022-11-27T13:25:16.773Z,9.90
2022-11-27T13:27:46.370Z,9.90
2022-11-27T13:30:29.815Z,10.00
2022-11-27T13:33:01.520Z,10.00
2022-11-27T13:35:38.285Z,10.00
2022-11-27T13:38:11.405Z,10.00
2022-11-27T13:40:43.197Z,10.00
2022-11-27T13:43:28.851Z,10.00
2022-11-27T13:46:07.767Z,10.00
2022-11-27T13:48:38.745Z,10.00
2022-11-27T13:51:08.118Z,9.90
2022-11-27T13:53:40.560Z,9.90
2022-11-27T13:56:09.249Z,10.00
2022-11-27T13:58:38.786Z,9.90
2022-11-27T14:01:20.818Z,9.90
2022-11-27T14:03:48.663Z,9.90
2022-11-27T14:06:22.849Z,9.90
2022-11-27T14:08:52.967Z,9.90
2022-11-27T14:11:31.019Z,9.90
2022-11-27T14:13:59.192Z,9.80
2022-11-27T14:16:34.567Z,9.80
2022-11-27T14:19:05.532Z,9.80
2022-11-27T14:21:35.610Z,9.70
2022-11-27T14:24:06.868Z,9.80
2022-11-27T14:26:33.671Z,9.70
2022-11-27T14:29:00.664Z,9.70
2022-11-27T14:31:33.375Z,9.60
2022-11-27T14:34:23.124Z,9.60
2022-11-27T14:36:52.057Z,9.60
2022-11-27T14:39:27.574Z,9.60
2022-11-27T14:41:59.325Z,9.60
2022-11-27T14:44:26.133Z,9.60
2022-11-27T14:46:54.046Z,9.50
2022-11-27T14:49:23.657Z,9.50
2022-11-27T14:51:51.213Z,9.50
2022-11-27T14:54:25.515Z,9.40
2022-11-27T14:56:52.998Z,9.40
2022-11-27T14:59:22.671Z,9.40
2022-11-27T15:02:13.113Z,9.40
2022-11-27T15:04:44.883Z,9.30
2022-11-27T15:07:29.230Z,9.30
2022-11-27T15:09:58.724Z,9.20
2022-11-27T15:12:33.124Z,9.20
2022-11-27T15:15:06.554Z,9.10
2022-11-27T15:17:36.895Z,9.10
2022-11-27T15:20:13.531Z,9.10
2022-11-27T15:22:48.509Z,9.10
2022-11-27T15:25:29.543Z,9.00
2022-11-27T15:27:56.281Z,9.00
2022-11-27T15:30:23.488Z,9.00
2022-11-27T15:32:52.183Z,9.00
2022-11-27T15:35:26.178Z,9.00
2022-11-27T15:37:55.723Z,9.10
2022-11-27T15:40:35.828Z,9.00
2022-11-27T15:43:03.335Z,9.10
2022-11-27T15:45:31.730Z,9.10
2022-11-27T15:48:00.842Z,9.10
2022-11-27T15:50:31.205Z,9.10
2022-11-27T15:52:57.984Z,9.10
2022-11-27T15:55:25.027Z,9.10
2022-11-27T15:57:51.845Z,9.10
2022-11-27T16:00:22.719Z,9.10
2022-11-27T16:02:49.735Z,9.10
2022-11-27T16:05:16.730Z,9.10
2022-11-27T16:07:54.720Z,9.10
2022-11-27T16:10:22.461Z,9.20
2022-11-27T16:12:49.491Z,9.20
2022-11-27T16:15:16.438Z,9.20
2022-11-27T16:17:43.286Z,9.20
2022-11-27T16:20:10.794Z,9.20
2022-11-27T16:22:37.685Z,9.20
2022-11-27T16:25:04.784Z,9.20
2022-11-27T16:27:35.421Z,9.20
2022-11-27T16:30:31.910Z,9.20
2022-11-27T16:33:05.104Z,9.20
2022-11-27T16:35:32.020Z,9.10
2022-11-27T16:38:00.997Z,9.10
2022-11-27T16:40:28.448Z,9.20
2022-11-27T16:42:55.761Z,9.20
2022-11-27T16:45:23.002Z,9.20
2022-11-27T16:47:54.889Z,9.20
2022-11-27T16:50:26.176Z,9.10
2022-11-27T16:56:50.109Z,9.10
2022-11-27T16:59:16.983Z,9.00
2022-11-27T17:01:44.021Z,9.00
2022-11-27T17:04:20.673Z,9.00
2022-11-27T17:06:49.179Z,9.00
2022-11-27T17:09:16.629Z,9.00
2022-11-27T17:11:48.278Z,8.90
2022-11-27T17:14:16.265Z,9.00
2022-11-27T17:16:43.411Z,8.90
2022-11-27T17:19:13.467Z,8.90
2022-11-27T17:21:41.192Z,8.90
2022-11-27T17:24:15.555Z,8.90
2022-11-27T17:26:46.078Z,8.90
2022-11-27T17:29:15.179Z,8.80
2022-11-27T17:31:42.444Z,8.80
2022-11-27T17:34:13.582Z,8.80
2022-11-27T17:36:42.873Z,8.70
2022-11-27T17:39:12.674Z,8.80
2022-11-27T17:41:40.471Z,8.70
2022-11-27T17:44:08.221Z,8.70
2022-11-27T17:46:36.836Z,8.70
2022-11-27T17:49:06.839Z,8.70
2022-11-27T17:51:35.851Z,8.70
2022-11-27T17:54:03.609Z,8.70
2022-11-27T17:56:32.744Z,8.70
2022-11-27T17:59:02.556Z,8.70
2022-11-27T18:01:30.703Z,8.70
2022-11-27T18:04:00.794Z,8.70
2022-11-27T18:06:30.670Z,8.70
2022-11-27T18:08:58.395Z,8.70
2022-11-27T18:11:27.829Z,8.70
2022-11-27T18:13:56.611Z,8.70
2022-11-27T18:16:29.032Z,8.60
2022-11-27T18:18:57.806Z,8.60
2022-11-27T18:21:27.023Z,8.70
2022-11-27T18:27:07.159Z,8.70
2022-11-27T18:29:29.719Z,8.70
2022-11-27T18:31:56.630Z,8.70
2022-11-27T18:34:23.479Z,8.70
2022-11-27T18:36:50.202Z,8.70
2022-11-27T18:39:17.101Z,8.70
2022-11-27T18:41:43.866Z,8.70
2022-11-27T18:44:10.881Z,8.70
2022-11-27T18:47:42.248Z,8.60
2022-11-27T18:50:11.944Z,8.70
2022-11-27T18:52:38.744Z,8.60
2022-11-27T18:55:06.076Z,8.70
2022-11-27T18:57:33.092Z,8.70
2022-11-27T19:00:03.364Z,8.70
2022-11-27T19:02:30.154Z,8.70
2022-11-27T19:04:56.968Z,8.70
2022-11-27T19:07:25.083Z,8.70
2022-11-27T19:09:53.210Z,8.60
2022-11-27T19:12:20.566Z,8.70
2022-11-27T19:14:48.633Z,8.70
2022-11-27T19:17:15.592Z,8.60
2022-11-27T19:20:04.497Z,8.70
2022-11-27T19:22:31.223Z,8.70
2022-11-27T19:24:58.077Z,8.70
2022-11-27T19:27:25.041Z,8.70
2022-11-27T19:29:52.439Z,8.70
2022-11-27T19:32:19.630Z,8.70
2022-11-27T19:34:46.568Z,8.60
2022-11-27T19:37:13.316Z,8.60
2022-11-27T19:39:40.259Z,8.60
2022-11-27T19:42:38.546Z,8.60
2022-11-27T19:45:09.468Z,8.60
2022-11-27T19:47:36.236Z,8.50
2022-11-27T19:50:03.879Z,8.50
2022-11-27T19:52:31.084Z,8.50
2022-11-27T19:54:58.649Z,8.50
2022-11-27T19:57:26.286Z,8.50
2022-11-27T19:59:53.163Z,8.40
2022-11-27T20:02:22.126Z,8.50
2022-11-27T20:04:49.373Z,8.50
2022-11-27T20:07:16.199Z,8.50
2022-11-27T20:09:43.256Z,8.50
2022-11-27T20:12:10.507Z,8.50
2022-11-27T20:14:37.743Z,8.50
2022-11-27T20:17:05.962Z,8.40
2022-11-27T20:19:33.040Z,8.50
2022-11-27T20:21:59.840Z,8.40
2022-11-27T20:24:26.647Z,8.40
2022-11-27T20:26:54.239Z,8.40
2022-11-27T20:29:20.986Z,8.40
2022-11-27T20:31:48.740Z,8.50
2022-11-27T20:34:21.464Z,8.50
2022-11-27T20:36:49.172Z,8.50
2022-11-27T20:39:20.965Z,8.50
2022-11-27T20:41:50.601Z,8.50
2022-11-27T20:44:18.260Z,8.60
2022-11-27T20:46:45.725Z,8.60
2022-11-27T20:49:12.862Z,8.50
2022-11-27T20:51:39.727Z,8.50
2022-11-27T20:54:09.241Z,8.50
2022-11-27T20:56:36.197Z,8.50
2022-11-27T20:59:04.911Z,8.60
2022-11-27T21:01:34.145Z,8.50
2022-11-27T21:04:04.422Z,8.60
2022-11-27T21:10:50.419Z,8.50
2022-11-27T21:13:17.730Z,8.50
2022-11-27T21:15:45.995Z,8.50
2022-11-27T21:18:12.931Z,8.60
2022-11-27T21:20:41.402Z,8.50
2022-11-27T21:23:08.421Z,8.60
2022-11-27T21:25:37.905Z,8.60
2022-11-27T21:28:04.985Z,8.60
2022-11-27T21:30:32.104Z,8.60
2022-11-27T21:32:58.824Z,8.60
2022-11-27T21:35:31.213Z,8.60
2022-11-27T21:37:58.660Z,8.60
2022-11-27T21:40:25.399Z,8.60
2022-11-27T21:42:55.568Z,8.70
2022-11-27T21:45:24.116Z,8.70
2022-11-27T21:47:51.613Z,8.70
2022-11-27T21:50:18.872Z,8.70
2022-11-27T21:52:46.794Z,8.70
2022-11-27T21:55:13.562Z,8.60
2022-11-27T21:57:40.454Z,8.60
2022-11-27T22:00:08.090Z,8.60
2022-11-27T22:02:39.025Z,8.60
2022-11-27T22:05:06.585Z,8.50
2022-11-27T22:07:34.614Z,8.50
2022-11-27T22:10:01.639Z,8.40
2022-11-27T22:12:28.641Z,8.30
2022-11-27T22:14:55.710Z,8.30
2022-11-27T22:17:24.518Z,8.30
2022-11-27T22:19:52.654Z,8.30
2022-11-27T22:22:19.845Z,8.20
2022-11-27T22:24:46.666Z,8.20
2022-11-27T22:27:13.489Z,8.20
2022-11-27T22:29:40.638Z,8.20
2022-11-27T22:32:08.537Z,8.20
2022-11-27T22:34:35.467Z,8.20
2022-11-27T22:37:03.674Z,8.20
2022-11-27T22:39:30.488Z,8.20
2022-11-27T22:41:57.413Z,8.20
2022-11-27T22:44:24.212Z,8.10
2022-11-27T22:46:51.112Z,8.10
2022-11-27T22:49:18.883Z,8.10
2022-11-27T22:51:46.529Z,8.00
2022-11-27T22:54:17.109Z,8.00
2022-11-27T22:56:48.943Z,8.00
2022-11-27T22:59:33.700Z,8.00
2022-11-27T23:02:05.517Z,8.00
2022-11-27T23:04:37.803Z,8.00
2022-11-27T23:07:05.921Z,8.00
2022-11-27T23:09:34.703Z,8.00
2022-11-27T23:12:01.781Z,8.00
2022-11-27T23:14:28.919Z,7.90
2022-11-27T23:16:55.805Z,8.00
2022-11-27T23:19:22.740Z,8.00
2022-11-27T23:21:49.603Z,8.00
2022-11-27T23:24:16.437Z,8.00
2022-11-27T23:26:44.152Z,7.90
2022-11-27T23:29:11.111Z,7.90
2022-11-27T23:31:38.209Z,8.00
2022-11-27T23:34:11.534Z,7.90
2022-11-27T23:36:38.569Z,8.00
2022-11-27T23:39:08.142Z,8.00
2022-11-27T23:41:34.951Z,7.90
2022-11-27T23:44:02.093Z,8.00
2022-11-27T23:46:30.087Z,7.90
2022-11-27T23:48:59.367Z,7.90
2022-11-27T23:51:29.525Z,7.90
2022-11-27T23:53:56.515Z,7.90
2022-11-27T23:56:29.390Z,7.80
2022-11-27T23:58:57.168Z,7.80
